Time;durP1;ratioP1;P1;durP2;ratioP2;P2;SDS_P1;SDS_P2;PMS_P1;PMS_P2;Temp;Humidity;BMP_temperature;BMP_pressure;BME280_temperature;BME280_humidity;BME280_pressure;Samples;Min_cycle;Max_cycle;Signal;HPM_P1;HPM_P2
2022/02/26 00:02:03;;;;;;;;;32.50;29.00;;;;;5.25;64.28;102670.13;4995788;28;45603;-81
2022/02/26 00:04:28;;;;;;;;;34.75;33.00;;;;;5.29;64.37;102669.63;5013628;28;45524;-84
2022/02/26 00:06:54;;;;;;;;;36.00;33.67;;;;;5.21;64.69;102661.09;5013559;28;45376;-81
2022/02/26 00:09:19;;;;;;;;;35.67;33.33;;;;;5.46;65.02;102707.56;5013517;28;45421;-80
2022/02/26 00:11:45;;;;;;;;;36.50;34.00;;;;;4.96;64.60;102629.41;4995927;28;45575;-83
2022/02/26 00:14:10;;;;;;;;;36.75;34.00;;;;;4.94;64.93;102617.94;5013466;28;45555;-81
2022/02/26 00:16:35;;;;;;;;;34.00;32.75;;;;;5.26;64.92;102679.75;5013619;28;45448;-88
2022/02/26 00:19:02;;;;;;;;;35.67;34.67;;;;;5.03;64.88;102647.41;5013730;28;45352;-82
2022/02/26 00:21:27;;;;;;;;;30.00;27.50;;;;;4.81;64.89;102612.44;5013599;28;45425;-83
2022/02/26 00:23:52;;;;;;;;;30.00;29.50;;;;;4.64;64.89;102587.53;5013162;28;46074;-87
2022/02/26 00:26:21;;;;;;;;;50.00;41.67;;;;;5.14;65.08;102680.53;5013522;28;45289;-85
2022/02/26 00:28:46;;;;;;;;;48.25;41.25;;;;;4.77;64.92;102629.47;5013875;28;45503;-85
2022/02/26 00:31:12;;;;;;;;;47.50;42.50;;;;;5.07;65.01;102690.25;5013538;28;45393;-79
2022/02/26 00:33:37;;;;;;;;;46.75;41.00;;;;;5.06;65.02;102694.56;5013115;28;46072;-84
2022/02/26 00:36:03;;;;;;;;;33.00;30.33;;;;;4.46;65.08;102591.09;5013377;28;45559;-86
2022/02/26 00:38:28;;;;;;;;;28.00;25.25;;;;;4.83;65.24;102661.31;4995183;28;45581;-87
2022/02/26 00:40:54;;;;;;;;;53.00;43.75;;;;;4.94;65.09;102683.09;5013585;28;45473;-84
2022/02/26 00:43:20;;;;;;;;;58.00;48.25;;;;;4.81;65.17;102667.13;5013429;28;45742;-88
2022/02/26 00:45:45;;;;;;;;;50.75;44.75;;;;;4.47;65.24;102608.53;5013023;28;45420;-88
2022/02/26 00:48:10;;;;;;;;;38.50;34.50;;;;;4.66;65.50;102645.84;5013887;28;45563;-84
2022/02/26 00:50:36;;;;;;;;;43.00;37.33;;;;;4.56;65.39;102628.50;5016930;28;45394;-83
2022/02/26 00:53:01;;;;;;;;;33.75;29.25;;;;;4.67;65.08;102655.50;4998184;28;46055;-80
2022/02/26 00:55:27;;;;;;;;;25.50;25.00;;;;;5.02;65.38;102717.63;5016957;28;45478;-87
2022/02/26 00:57:52;;;;;;;;;35.50;33.25;;;;;4.96;65.39;102719.69;5016820;28;45457;-82
2022/02/26 01:00:18;;;;;;;;;100.75;91.00;;;;;4.91;65.73;102729.69;5016638;28;45309;-81
2022/02/26 01:02:43;;;;;;;;;153.50;142.00;;;;;4.74;65.67;102716.88;5016424;28;45433;-87
2022/02/26 01:05:10;;;;;;;;;105.00;94.00;;;;;4.48;65.85;102672.84;5016501;28;45359;-80
2022/02/26 01:07:35;;;;;;;;;34.00;31.00;;;;;4.82;65.58;102742.81;5016660;28;45386;-85
2022/02/26 01:10:01;;;;;;;;;28.75;24.75;;;;;4.06;65.75;102611.88;5016328;28;45780;-80
2022/02/26 01:12:26;;;;;;;;;28.50;28.00;;;;;4.62;65.93;102722.78;5016231;28;45372;-84
2022/02/26 01:14:51;;;;;;;;;68.67;54.67;;;;;4.26;65.95;102664.81;5016286;28;45291;-84
2022/02/26 01:17:17;;;;;;;;;61.50;51.25;;;;;4.44;66.08;102712.44;5016394;28;45425;-87
2022/02/26 01:19:43;;;;;;;;;41.50;38.50;;;;;4.23;66.22;102672.31;5016842;28;45388;-85
2022/02/26 01:22:08;;;;;;;;;34.50;33.75;;;;;3.96;66.28;102627.44;5016241;28;45465;-85
2022/02/26 01:24:34;;;;;;;;;35.25;34.00;;;;;4.74;66.29;102759.47;5016094;28;45480;-87
2022/02/26 01:27:00;;;;;;;;;28.75;27.50;;;;;4.57;66.21;102716.25;5015557;28;45301;-87
2022/02/26 01:29:25;;;;;;;;;23.50;22.00;;;;;4.44;66.56;102709.81;5016526;28;45456;-85
2022/02/26 01:31:51;;;;;;;;;21.75;21.25;;;;;4.70;66.42;102749.53;5016244;28;46314;-87
2022/02/26 01:34:16;;;;;;;;;30.25;27.50;;;;;4.62;66.16;102746.22;5015937;28;45302;-84
2022/02/26 01:36:42;;;;;;;;;24.33;24.00;;;;;4.29;66.88;102685.91;5016115;28;45441;-87
2022/02/26 01:39:09;;;;;;;;;28.25;26.50;;;;;4.26;66.59;102686.53;5015591;28;45286;-86
2022/02/26 01:41:34;;;;;;;;;29.25;24.00;;;;;3.62;66.53;102566.22;5016290;28;46482;-84
2022/02/26 01:44:02;;;;;;;;;28.50;27.75;;;;;4.31;66.48;102702.56;4997919;28;45290;-79
2022/02/26 01:46:28;;;;;;;;;28.00;27.00;;;;;4.36;66.66;102714.31;5015920;28;45374;-81
2022/02/26 01:48:54;;;;;;;;;27.00;23.25;;;;;4.24;66.40;102695.00;5015821;28;45429;-86
2022/02/26 01:51:20;;;;;;;;;27.50;24.75;;;;;3.84;66.79;102622.03;5015613;28;46474;-88
2022/02/26 01:53:46;;;;;;;;;28.25;24.00;;;;;4.42;66.87;102724.38;5015395;28;45365;-89
2022/02/26 01:56:11;;;;;;;;;28.00;26.00;;;;;4.09;66.64;102669.41;5015617;28;45495;-88
2022/02/26 01:58:38;;;;;;;;;30.25;25.00;;;;;4.30;66.88;102712.06;4998005;28;45426;-78
2022/02/26 02:01:05;;;;;;;;;24.00;22.25;;;;;4.53;66.75;102755.84;5015256;28;45408;-84
2022/02/26 02:03:31;;;;;;;;;31.75;27.75;;;;;4.54;66.77;102762.88;5016183;28;45788;-85
2022/02/26 02:05:58;;;;;;;;;24.75;24.00;;;;;4.45;66.93;102745.50;5015594;28;45364;-87
2022/02/26 02:08:24;;;;;;;;;30.00;26.25;;;;;4.53;66.70;102749.69;5015548;28;45512;-81
2022/02/26 02:10:51;;;;;;;;;29.00;24.00;;;;;4.50;66.45;102750.34;5013797;28;48053;-81
2022/02/26 02:13:17;;;;;;;;;26.75;24.75;;;;;4.08;66.28;102701.38;5015108;28;45776;-89
2022/02/26 02:15:43;;;;;;;;;25.50;24.50;;;;;4.26;66.50;102722.06;5015564;28;45483;-85
2022/02/26 02:18:10;;;;;;;;;25.00;21.75;;;;;4.20;66.53;102714.63;5015563;28;45358;-88
2022/02/26 02:20:37;;;;;;;;;22.25;19.00;;;;;4.32;66.63;102744.34;5016708;28;45460;-85
2022/02/26 02:23:03;;;;;;;;;25.50;23.75;;;;;4.37;66.80;102747.38;5015275;28;45394;-82
2022/02/26 02:25:30;;;;;;;;;24.25;23.00;;;;;3.96;66.58;102684.66;5016144;28;45825;-84
2022/02/26 02:27:57;;;;;;;;;27.75;25.50;;;;;4.35;66.76;102751.53;5015269;28;45552;-81
2022/02/26 02:30:25;;;;;;;;;25.00;21.75;;;;;4.29;66.71;102740.56;5015540;28;45533;-88
2022/02/26 02:32:51;;;;;;;;;22.25;21.75;;;;;4.14;66.67;102720.19;5015282;28;45954;-88
2022/02/26 02:35:29;;;;;;;;;15.75;15.25;;;;;4.29;66.70;102743.19;5015637;28;45438;-81
2022/02/26 02:37:56;;;;;;;;;21.00;20.75;;;;;4.28;66.94;102747.44;5015130;28;45318;-89
2022/02/26 02:40:23;;;;;;;;;23.25;21.75;;;;;4.04;66.83;102696.69;5015742;28;46544;-87
2022/02/26 02:42:49;;;;;;;;;24.00;21.75;;;;;4.21;66.79;102739.88;5015316;28;45456;-82
2022/02/26 02:45:14;;;;;;;;;19.75;18.75;;;;;4.20;66.71;102730.22;4997273;28;45350;-81
2022/02/26 02:47:40;;;;;;;;;21.75;20.75;;;;;3.88;66.68;102690.81;5015123;28;45491;-88
2022/02/26 02:50:06;;;;;;;;;22.67;19.67;;;;;4.18;66.64;102743.84;5014390;28;46407;-83
2022/02/26 02:52:31;;;;;;;;;17.50;15.25;;;;;3.90;67.06;102691.91;5014683;28;45638;-79
2022/02/26 02:54:57;;;;;;;;;17.67;17.00;;;;;3.72;66.91;102649.50;4996919;28;45463;-88
2022/02/26 02:57:22;;;;;;;;;15.00;15.00;;;;;3.55;66.68;102627.13;5015043;28;45551;-85
2022/02/26 02:59:47;;;;;;;;;15.67;15.67;;;;;3.95;67.13;102711.44;5014914;28;45404;-83
2022/02/26 03:02:13;;;;;;;;;19.25;18.00;;;;;4.01;67.13;102713.69;5015004;28;45148;-89
2022/02/26 03:04:38;;;;;;;;;19.75;17.75;;;;;4.08;66.95;102724.78;4997574;28;45571;-88
2022/02/26 03:07:03;;;;;;;;;18.00;17.50;;;;;3.98;67.08;102698.69;5014570;28;45508;-86
2022/02/26 03:09:29;;;;;;;;;18.33;18.00;;;;;3.73;67.02;102664.31;4996329;28;47272;-82
2022/02/26 03:11:54;;;;;;;;;19.75;17.75;;;;;3.77;66.98;102675.91;4995658;28;45562;-84
2022/02/26 03:14:19;;;;;;;;;19.75;18.50;;;;;3.58;67.21;102647.28;5014665;28;45436;-86
2022/02/26 03:16:45;;;;;;;;;17.33;17.00;;;;;3.74;66.91;102671.34;5014547;28;45481;-82
2022/02/26 03:19:10;;;;;;;;;18.75;17.00;;;;;3.82;67.15;102682.47;5014430;28;46282;-85
2022/02/26 03:21:36;;;;;;;;;14.25;13.00;;;;;3.97;67.03;102722.91;5014460;28;45341;-81
2022/02/26 03:24:01;;;;;;;;;17.50;17.00;;;;;3.42;67.17;102636.25;5014217;28;45477;-80
2022/02/26 03:26:27;;;;;;;;;17.75;16.75;;;;;3.73;67.19;102700.72;5014354;28;45359;-85
2022/02/26 03:28:52;;;;;;;;;16.00;15.25;;;;;2.97;67.24;102558.44;5014519;28;46473;-87
2022/02/26 03:31:19;;;;;;;;;22.00;21.25;;;;;3.58;67.35;102668.09;5014519;28;45503;-88
2022/02/26 03:33:45;;;;;;;;;30.00;24.25;;;;;3.75;67.12;102696.59;5014604;28;45305;-87
2022/02/26 03:36:11;;;;;;;;;18.50;17.25;;;;;3.87;67.34;102723.72;5014782;28;45396;-84
2022/02/26 03:38:38;;;;;;;;;21.00;17.75;;;;;3.86;67.28;102718.41;4996166;28;46341;-85
2022/02/26 03:41:03;;;;;;;;;18.75;17.75;;;;;3.62;67.19;102676.31;5014437;28;45446;-82
2022/02/26 03:43:29;;;;;;;;;17.00;15.50;;;;;3.60;67.08;102671.75;5014792;28;45452;-81
2022/02/26 03:45:55;;;;;;;;;20.67;18.00;;;;;3.61;67.04;102687.50;5014803;28;45335;-88
2022/02/26 03:48:20;;;;;;;;;20.00;17.25;;;;;3.59;67.40;102686.41;5013843;28;46330;-81
2022/02/26 03:50:46;;;;;;;;;17.67;16.00;;;;;3.19;67.38;102623.69;5014276;28;45522;-80
2022/02/26 03:53:11;;;;;;;;;19.75;18.00;;;;;3.69;67.66;102711.59;5013689;28;45366;-88
2022/02/26 03:55:37;;;;;;;;;25.00;23.00;;;;;3.67;67.51;102714.84;5014030;28;45535;-85
2022/02/26 03:58:03;;;;;;;;;21.75;15.25;;;;;3.44;67.70;102678.88;5014071;28;46201;-86
2022/02/26 04:00:28;;;;;;;;;18.75;17.00;;;;;3.67;67.63;102718.34;5013680;28;45255;-80
2022/02/26 04:02:53;;;;;;;;;15.25;14.00;;;;;3.23;67.60;102642.31;5014058;28;45606;-80
2022/02/26 04:05:20;;;;;;;;;18.00;16.67;;;;;3.65;67.68;102730.31;5014437;28;45767;-82
2022/02/26 04:07:45;;;;;;;;;17.75;17.00;;;;;3.26;67.60;102663.41;5013285;28;45479;-81
2022/02/26 04:10:11;;;;;;;;;17.25;15.00;;;;;3.62;67.50;102732.59;5013582;28;45302;-83
2022/02/26 04:12:37;;;;;;;;;17.75;16.00;;;;;3.47;67.85;102713.88;5013691;28;45325;-81
2022/02/26 04:15:03;;;;;;;;;19.00;16.50;;;;;3.27;67.81;102672.09;5013737;28;45565;-88
2022/02/26 04:17:28;;;;;;;;;17.00;14.75;;;;;3.17;67.59;102664.22;5013567;28;46310;-83
2022/02/26 04:19:54;;;;;;;;;16.33;14.33;;;;;3.26;67.59;102676.38;5013690;28;45535;-88
2022/02/26 04:22:19;;;;;;;;;17.25;16.00;;;;;2.99;67.73;102635.69;5013675;28;45414;-86
2022/02/26 04:24:44;;;;;;;;;15.67;15.33;;;;;3.43;67.74;102719.56;5013522;28;45476;-87
2022/02/26 04:27:10;;;;;;;;;18.00;15.25;;;;;3.26;67.66;102696.25;5013608;28;46483;-89
2022/02/26 04:29:35;;;;;;;;;15.25;15.25;;;;;3.47;67.67;102747.66;5014044;28;45499;-87
2022/02/26 04:32:01;;;;;;;;;16.50;15.25;;;;;3.51;67.71;102746.28;5013645;28;45488;-88
2022/02/26 04:34:26;;;;;;;;;16.75;16.75;;;;;3.43;67.51;102737.75;5013899;28;45491;-82
2022/02/26 04:36:51;;;;;;;;;14.50;14.00;;;;;3.02;67.51;102667.19;5013493;28;46203;-83
2022/02/26 04:39:17;;;;;;;;;16.50;15.75;;;;;3.49;67.47;102740.91;5013327;28;45562;-81
2022/02/26 04:41:42;;;;;;;;;16.33;15.33;;;;;3.48;67.83;102756.38;5013877;28;45506;-88
2022/02/26 04:44:07;;;;;;;;;15.25;12.75;;;;;2.80;67.44;102642.50;5013317;28;45713;-85
2022/02/26 04:46:33;;;;;;;;;13.67;13.67;;;;;3.39;67.64;102739.91;5013332;28;45371;-82
2022/02/26 04:48:58;;;;;;;;;13.25;11.50;;;;;2.95;67.81;102662.16;5013506;28;45334;-84
2022/02/26 04:51:23;;;;;;;;;14.50;12.75;;;;;3.25;67.82;102720.41;5013028;28;45432;-82
2022/02/26 04:53:49;;;;;;;;;18.00;16.00;;;;;2.58;67.72;102603.19;5013111;28;45367;-85
2022/02/26 04:56:14;;;;;;;;;15.75;15.75;;;;;3.15;67.91;102705.59;5013003;28;46119;-81
2022/02/26 04:58:40;;;;;;;;;16.00;13.00;;;;;3.28;67.87;102724.22;5012977;28;45382;-88
2022/02/26 05:01:05;;;;;;;;;14.00;13.75;;;;;2.55;67.63;102590.81;5013269;28;45335;-82
2022/02/26 05:03:31;;;;;;;;;17.75;16.00;;;;;3.34;67.67;102740.38;5013501;28;45731;-88
2022/02/26 05:05:57;;;;;;;;;17.50;16.00;;;;;3.27;67.69;102731.88;5012990;28;45261;-88
2022/02/26 05:08:22;;;;;;;;;17.75;15.75;;;;;3.23;67.57;102720.25;5012418;28;45401;-81
2022/02/26 05:10:48;;;;;;;;;16.75;14.00;;;;;2.53;67.74;102607.94;5013215;28;45641;-83
2022/02/26 05:13:14;;;;;;;;;16.75;14.50;;;;;3.28;67.76;102729.41;4995227;28;45682;-87
2022/02/26 05:15:39;;;;;;;;;15.75;14.00;;;;;2.80;67.81;102653.78;5012832;28;45534;-80
2022/02/26 05:18:04;;;;;;;;;15.67;15.33;;;;;2.64;67.75;102629.72;5013032;28;45361;-85
2022/02/26 05:20:30;;;;;;;;;18.25;17.00;;;;;3.00;68.09;102692.06;5013406;28;45529;-87
2022/02/26 05:22:57;;;;;;;;;23.75;22.00;;;;;3.25;68.21;102738.59;5012746;28;45637;-80
2022/02/26 05:25:22;;;;;;;;;17.25;15.25;;;;;3.22;68.42;102734.03;5012843;28;45539;-87
2022/02/26 05:27:47;;;;;;;;;13.25;13.00;;;;;3.06;68.28;102700.47;5012543;28;45463;-81
2022/02/26 05:30:15;;;;;;;;;16.67;14.67;;;;;2.39;68.21;102574.56;5012807;28;45270;-87
2022/02/26 05:32:41;;;;;;;;;18.50;17.25;;;;;2.53;68.17;102605.34;5012810;28;45306;-82
2022/02/26 05:35:07;;;;;;;;;16.00;13.00;;;;;2.31;68.14;102554.72;5014135;28;45623;-88
2022/02/26 05:37:32;;;;;;;;;17.50;17.50;;;;;2.75;67.85;102652.44;5015830;28;45887;-81
2022/02/26 05:39:57;;;;;;;;;16.50;13.50;;;;;3.07;68.07;102715.28;5016193;28;45436;-88
2022/02/26 05:42:23;;;;;;;;;13.50;12.75;;;;;2.94;68.24;102691.47;5016519;28;45433;-88
2022/02/26 05:44:48;;;;;;;;;16.25;14.25;;;;;2.95;68.16;102700.19;5015915;28;45452;-84
2022/02/26 05:47:14;;;;;;;;;17.25;14.50;;;;;3.20;68.18;102734.63;5016040;28;45369;-88
2022/02/26 05:49:39;;;;;;;;;15.75;14.00;;;;;3.19;68.31;102732.81;5015808;28;45431;-86
2022/02/26 05:52:05;;;;;;;;;15.75;14.00;;;;;3.14;68.13;102734.03;5016269;28;45452;-87
2022/02/26 05:54:32;;;;;;;;;15.75;15.00;;;;;2.82;68.05;102696.41;5015781;28;46607;-85
2022/02/26 05:56:57;;;;;;;;;16.00;12.50;;;;;3.06;68.14;102735.94;5016295;28;45542;-83
2022/02/26 05:59:23;;;;;;;;;15.25;15.25;;;;;2.84;68.09;102705.25;5016012;28;45297;-83
2022/02/26 06:01:48;;;;;;;;;13.75;12.50;;;;;3.07;68.08;102754.25;5015770;28;45568;-80
2022/02/26 06:04:13;;;;;;;;;18.67;14.67;;;;;2.43;68.07;102630.25;5015415;28;46543;-82
2022/02/26 06:06:39;;;;;;;;;15.75;15.75;;;;;3.02;67.75;102731.19;5015519;28;45482;-87
2022/02/26 06:09:05;;;;;;;;;15.25;14.50;;;;;2.96;68.08;102741.91;5015572;28;45461;-80
2022/02/26 06:11:30;;;;;;;;;16.50;16.25;;;;;2.65;68.19;102691.25;5015531;28;45512;-87
2022/02/26 06:13:55;;;;;;;;;16.50;15.25;;;;;2.43;68.17;102657.13;5015554;28;45443;-80
2022/02/26 06:16:21;;;;;;;;;16.00;15.33;;;;;2.98;68.20;102752.44;5015822;28;45329;-84
2022/02/26 06:18:46;;;;;;;;;17.75;16.75;;;;;2.95;68.08;102747.84;5015850;28;45629;-81
2022/02/26 06:21:12;;;;;;;;;19.00;17.75;;;;;2.53;68.13;102687.47;5015458;28;45270;-82
2022/02/26 06:23:37;;;;;;;;;15.00;13.25;;;;;2.91;68.19;102750.94;5014918;28;45297;-84
2022/02/26 06:26:03;;;;;;;;;18.25;17.25;;;;;2.23;68.47;102636.09;5015143;28;45399;-80
2022/02/26 06:28:28;;;;;;;;;13.50;12.25;;;;;2.92;68.48;102757.03;5015243;28;45377;-82
2022/02/26 06:30:54;;;;;;;;;16.25;14.50;;;;;2.74;68.26;102725.00;5015588;28;45500;-87
2022/02/26 06:33:19;;;;;;;;;17.00;16.75;;;;;2.24;67.92;102646.63;5015469;28;45972;-85
2022/02/26 06:35:44;;;;;;;;;21.25;16.75;;;;;2.87;68.27;102753.09;5015132;28;45597;-81
2022/02/26 06:38:11;;;;;;;;;20.50;16.50;;;;;2.85;68.16;102753.81;5015149;28;45415;-87
2022/02/26 06:40:36;;;;;;;;;17.00;16.25;;;;;2.87;68.40;102758.28;5015008;28;45389;-81
2022/02/26 06:43:02;;;;;;;;;18.75;18.75;;;;;2.56;68.32;102704.28;5014952;28;46118;-84
2022/02/26 06:45:28;;;;;;;;;18.25;18.25;;;;;2.36;68.38;102666.72;5014732;28;45401;-86
2022/02/26 06:47:53;;;;;;;;;19.00;17.75;;;;;2.57;68.20;102705.19;5014528;28;45445;-88
2022/02/26 06:50:18;;;;;;;;;22.33;21.00;;;;;2.93;68.58;102766.66;5015402;28;45470;-88
2022/02/26 06:52:44;;;;;;;;;16.25;14.25;;;;;2.42;68.36;102667.38;5014317;28;46374;-86
2022/02/26 06:55:09;;;;;;;;;25.25;23.50;;;;;2.40;68.25;102667.19;5014769;28;45338;-87
2022/02/26 06:57:35;;;;;;;;;26.75;22.00;;;;;2.73;68.67;102725.78;5015021;28;45301;-83
2022/02/26 07:00:01;;;;;;;;;16.00;14.50;;;;;2.17;68.88;102625.09;5014865;28;45298;-86
2022/02/26 07:02:26;;;;;;;;;17.75;17.00;;;;;2.53;69.02;102682.28;5014559;28;45505;-87
2022/02/26 07:04:51;;;;;;;;;139.25;113.00;;;;;3.00;68.88;102758.69;5014536;28;45302;-87
2022/02/26 07:07:17;;;;;;;;;49.00;43.33;;;;;2.73;69.17;102712.78;5014602;28;45379;-85
2022/02/26 07:09:42;;;;;;;;;31.00;29.75;;;;;2.45;69.00;102655.56;5014862;28;45737;-87
2022/02/26 07:12:09;;;;;;;;;25.50;23.00;;;;;3.13;69.16;102766.00;5014555;28;45552;-87
2022/02/26 07:14:34;;;;;;;;;24.25;22.25;;;;;3.16;69.45;102754.22;5014600;28;45594;-84
2022/02/26 07:17:00;;;;;;;;;26.25;21.50;;;;;2.86;68.81;102697.66;5014545;28;45412;-86
2022/02/26 07:19:25;;;;;;;;;21.00;21.00;;;;;2.91;68.73;102705.88;4996765;28;45522;-84
2022/02/26 07:21:50;;;;;;;;;24.67;20.67;;;;;2.64;68.85;102655.69;5014351;28;45391;-83
2022/02/26 07:24:17;;;;;;;;;22.00;21.00;;;;;3.16;68.75;102740.31;5013768;28;45286;-87
2022/02/26 07:26:42;;;;;;;;;22.00;21.00;;;;;2.95;68.78;102695.91;5014859;28;45523;-80
2022/02/26 07:29:08;;;;;;;;;29.25;27.00;;;;;3.02;68.61;102708.72;5014681;28;45372;-86
2022/02/26 07:31:33;;;;;;;;;79.50;63.00;;;;;3.08;68.70;102724.00;4996308;28;47385;-80
2022/02/26 07:33:59;;;;;;;;;29.50;26.25;;;;;3.21;68.69;102742.59;5014353;28;45274;-84
2022/02/26 07:36:24;;;;;;;;;278.33;245.33;;;;;2.96;68.80;102684.78;5014452;28;46007;-88
2022/02/26 07:38:50;;;;;;;;;27.50;25.00;;;;;3.14;68.79;102714.19;5013883;28;45226;-87
2022/02/26 07:41:15;;;;;;;;;36.00;34.00;;;;;3.28;68.84;102732.00;5014216;28;45374;-87
2022/02/26 07:43:41;;;;;;;;;30.75;29.75;;;;;3.52;69.01;102764.63;5013872;28;45483;-84
2022/02/26 07:46:07;;;;;;;;;27.33;21.00;;;;;3.63;69.06;102773.44;5014096;28;45376;-88
2022/02/26 07:48:33;;;;;;;;;36.25;34.50;;;;;3.70;69.10;102774.94;5013945;28;45475;-80
2022/02/26 07:50:58;;;;;;;;;29.00;26.75;;;;;3.68;69.23;102753.06;5013355;28;45450;-88
2022/02/26 07:53:24;;;;;;;;;19.67;19.33;;;;;2.81;69.12;102587.22;5013685;28;45414;-84
2022/02/26 07:55:50;;;;;;;;;23.25;22.50;;;;;3.68;69.26;102734.88;5014043;28;45413;-87
2022/02/26 07:58:15;;;;;;;;;21.75;20.25;;;;;3.09;68.99;102632.28;5013871;28;45302;-82
2022/02/26 08:00:41;;;;;;;;;26.25;24.00;;;;;3.56;69.24;102703.44;5013574;28;45844;-86
2022/02/26 08:03:07;;;;;;;;;25.50;25.00;;;;;3.97;69.53;102754.13;5013931;28;45369;-88
2022/02/26 08:05:32;;;;;;;;;26.25;24.75;;;;;3.13;69.39;102586.75;5014174;28;45440;-88
2022/02/26 08:07:58;;;;;;;;;31.00;29.00;;;;;4.25;69.47;102782.72;5013388;28;45421;-87
2022/02/26 08:10:25;;;;;;;;;19.25;18.50;;;;;4.02;69.52;102732.03;5013821;28;45432;-81
2022/02/26 08:12:55;;;;;;;;;16.50;13.00;;;;;4.28;69.78;102752.66;5013455;28;45318;-81
2022/02/26 08:15:23;;;;;;;;;15.50;14.25;;;;;4.51;69.82;102775.59;5013708;28;45416;-87
2022/02/26 08:17:50;;;;;;;;;14.25;13.75;;;;;4.61;69.87;102770.44;5013604;28;45552;-88
2022/02/26 08:20:19;;;;;;;;;13.00;12.75;;;;;4.13;69.58;102676.69;5013277;28;45569;-82
2022/02/26 08:22:45;;;;;;;;;11.75;10.50;;;;;4.27;69.56;102677.03;5013153;28;45331;-85
2022/02/26 08:25:11;;;;;;;;;8.00;8.00;;;;;4.81;69.55;102759.22;4996016;28;45434;-80
2022/02/26 08:27:37;;;;;;;;;12.50;11.00;;;;;4.69;69.19;102721.66;4995749;28;45718;-81
2022/02/26 08:30:05;;;;;;;;;10.00;8.50;;;;;5.04;69.02;102773.41;5013262;28;45331;-84
2022/02/26 08:32:30;;;;;;;;;7.50;7.25;;;;;4.46;68.59;102666.59;5013598;28;45294;-86
2022/02/26 08:34:55;;;;;;;;;12.00;10.50;;;;;5.15;68.58;102757.94;5013654;28;45625;-86
2022/02/26 08:37:21;;;;;;;;;10.50;10.50;;;;;5.20;68.85;102755.75;5013032;28;45344;-80
2022/02/26 08:39:46;;;;;;;;;17.50;12.75;;;;;5.09;68.82;102725.22;5013092;28;45587;-85
2022/02/26 08:42:11;;;;;;;;;15.67;14.33;;;;;5.08;68.49;102719.09;5013232;28;45313;-81
2022/02/26 08:44:38;;;;;;;;;14.75;14.25;;;;;4.90;68.56;102681.88;5013253;28;45364;-88
2022/02/26 08:47:04;;;;;;;;;15.50;13.00;;;;;5.44;68.35;102763.09;5013242;28;45540;-86
2022/02/26 08:49:30;;;;;;;;;9.75;9.75;;;;;4.84;68.09;102646.59;5013047;28;46172;-79
2022/02/26 08:51:56;;;;;;;;;15.25;14.50;;;;;5.52;68.32;102766.41;5013122;28;45566;-80
2022/02/26 08:54:21;;;;;;;;;7.75;6.75;;;;;5.28;68.33;102717.31;4995085;28;45471;-80
2022/02/26 08:56:47;;;;;;;;;20.00;15.00;;;;;5.38;68.33;102718.25;5012969;28;45322;-83
2022/02/26 08:59:12;;;;;;;;;15.50;14.50;;;;;5.67;68.02;102759.00;5012633;28;45327;-88
2022/02/26 09:01:38;;;;;;;;;18.00;17.75;;;;;5.72;68.25;102760.31;5013275;28;45328;-80
2022/02/26 09:04:04;;;;;;;;;14.50;14.50;;;;;5.79;68.04;102765.25;5013418;28;45490;-87
2022/02/26 09:06:30;;;;;;;;;19.25;18.00;;;;;5.68;68.04;102735.63;5013226;28;45469;-82
2022/02/26 09:08:55;;;;;;;;;15.00;14.75;;;;;5.73;67.91;102735.13;5012567;28;46277;-83
2022/02/26 09:11:20;;;;;;;;;15.67;15.33;;;;;5.63;68.03;102704.72;5015885;28;45454;-85
2022/02/26 09:13:46;;;;;;;;;15.50;13.50;;;;;5.83;67.62;102728.22;5016677;28;45290;-81
2022/02/26 09:16:14;;;;;;;;;18.25;15.50;;;;;6.03;67.52;102761.25;5016504;28;45459;-80
2022/02/26 09:18:39;;;;;;;;;14.75;12.75;;;;;5.76;67.34;102711.88;5016243;28;46536;-81
2022/02/26 09:21:06;;;;;;;;;18.50;16.00;;;;;6.08;67.76;102746.91;5016484;28;45440;-83
2022/02/26 09:23:33;;;;;;;;;14.25;12.25;;;;;6.21;67.62;102751.47;5016157;28;45460;-84
2022/02/26 09:25:58;;;;;;;;;16.50;15.75;;;;;6.26;67.50;102752.78;5016684;28;45585;-87
2022/02/26 09:28:24;;;;;;;;;17.00;16.25;;;;;6.16;67.58;102732.81;5016464;28;46083;-85
2022/02/26 09:30:49;;;;;;;;;13.75;12.75;;;;;6.11;67.06;102696.66;5016218;28;45294;-88
2022/02/26 09:33:15;;;;;;;;;14.00;13.25;;;;;6.28;66.80;102714.63;5016350;28;45560;-82
2022/02/26 09:35:40;;;;;;;;;12.50;12.50;;;;;6.38;66.75;102721.53;5016598;28;45697;-88
2022/02/26 09:38:06;;;;;;;;;20.00;15.00;;;;;6.33;66.74;102704.56;5015816;28;45318;-86
2022/02/26 09:40:32;;;;;;;;;17.25;14.75;;;;;5.85;66.78;102609.22;5016778;28;45531;-88
2022/02/26 09:42:59;;;;;;;;;12.00;10.75;;;;;6.47;66.54;102710.16;5016316;28;45528;-88
2022/02/26 09:45:24;;;;;;;;;10.00;10.00;;;;;6.43;66.13;102694.09;5016515;28;45373;-81
2022/02/26 09:47:50;;;;;;;;;14.25;12.75;;;;;6.81;66.13;102741.66;4998162;28;48020;-85
2022/02/26 09:50:16;;;;;;;;;17.50;14.75;;;;;6.68;66.06;102708.38;5016272;28;45517;-88
2022/02/26 09:52:45;;;;;;;;;10.00;10.00;;;;;6.93;65.89;102742.66;5015643;28;45325;-83
2022/02/26 09:55:11;;;;;;;;;11.75;10.75;;;;;7.00;65.61;102741.47;5015945;28;45350;-81
2022/02/26 09:57:37;;;;;;;;;11.00;9.25;;;;;7.05;65.12;102742.75;5015794;28;45471;-85
2022/02/26 10:00:04;;;;;;;;;11.00;10.25;;;;;7.10;65.02;102751.88;5016379;28;45524;-85
2022/02/26 10:02:35;;;;;;;;;11.25;10.50;;;;;6.74;64.93;102660.91;5016197;28;45429;-83
2022/02/26 10:05:03;;;;;;;;;15.75;12.25;;;;;7.27;64.89;102747.97;5016397;28;45570;-88
2022/02/26 10:07:33;;;;;;;;;14.50;9.75;;;;;7.33;64.27;102738.00;5015123;28;46090;-81
2022/02/26 10:09:58;;;;;;;;;10.25;9.25;;;;;7.38;64.35;102725.28;5015267;28;45334;-83
2022/02/26 10:12:27;;;;;;;;;12.00;9.75;;;;;7.52;63.89;102729.00;5015423;28;45452;-80
2022/02/26 10:14:55;;;;;;;;;8.75;8.00;;;;;7.26;63.53;102675.53;5015868;28;45412;-89
2022/02/26 10:17:36;;;;;;;;;8.50;8.00;;;;;7.55;63.40;102703.09;5015633;28;45526;-82
2022/02/26 10:20:18;;;;;;;;;9.25;9.00;;;;;7.59;63.13;102697.31;4997981;28;45521;-87
2022/02/26 10:22:48;;;;;;;;;7.00;5.50;;;;;7.82;62.68;102714.78;5015335;28;45322;-82
2022/02/26 10:25:15;;;;;;;;;8.50;8.00;;;;;7.60;62.40;102671.25;5015549;28;45512;-80
2022/02/26 10:27:52;;;;;;;;;8.75;7.25;;;;;7.93;62.42;102719.13;5015300;28;45660;-85
2022/02/26 10:30:26;;;;;;;;;8.00;8.00;;;;;7.64;62.16;102647.16;5015424;28;45504;-81
2022/02/26 10:33:17;;;;;;;;;7.75;7.50;;;;;8.05;61.62;102711.31;4997424;28;45570;-85
2022/02/26 10:35:54;;;;;;;;;8.50;8.00;;;;;8.11;61.70;102717.00;4997527;28;45414;-87
2022/02/26 10:38:32;;;;;;;;;8.50;6.50;;;;;7.75;61.11;102629.63;5015154;28;46604;-86
2022/02/26 10:41:09;;;;;;;;;6.00;5.50;;;;;7.63;60.90;102594.66;5015364;28;45419;-83
2022/02/26 10:43:48;;;;;;;;;8.00;7.50;;;;;7.84;60.29;102629.44;5015798;28;44981;-89
2022/02/26 10:46:14;;;;;;;;;11.50;9.00;;;;;8.27;60.45;102697.34;5015183;28;45473;-86
2022/02/26 10:48:41;;;;;;;;;4.50;4.00;;;;;8.32;60.24;102707.22;5015037;28;45387;-81
2022/02/26 10:51:13;;;;;;;;;4.50;3.00;;;;;8.30;59.04;102675.69;5014811;28;45357;-80
2022/02/26 10:53:41;;;;;;;;;4.00;3.00;;;;;7.60;58.48;102524.72;5014941;28;45436;-85
2022/02/26 10:56:07;;;;;;;;;4.00;3.00;;;;;8.57;58.31;102682.13;5015470;28;45543;-81
2022/02/26 10:58:33;;;;;;;;;2.75;2.00;;;;;8.57;58.36;102675.94;4997171;28;46732;-80
2022/02/26 11:01:00;;;;;;;;;2.25;2.25;;;;;8.41;57.57;102634.59;5015276;28;46055;-80
2022/02/26 11:03:26;;;;;;;;;3.00;3.00;;;;;8.73;57.49;102684.16;4997540;28;45301;-84
2022/02/26 11:05:53;;;;;;;;;4.00;2.67;;;;;8.48;57.00;102635.16;5014957;28;45243;-88
2022/02/26 11:08:19;;;;;;;;;6.00;4.00;;;;;8.82;57.03;102684.81;5014353;28;46593;-84
2022/02/26 11:10:45;;;;;;;;;4.00;4.00;;;;;8.72;56.85;102646.53;5015106;28;45994;-81
2022/02/26 11:13:15;;;;;;;;;4.75;4.25;;;;;8.71;56.85;102621.09;5014966;28;45518;-88
2022/02/26 11:15:42;;;;;;;;;7.25;6.25;;;;;9.06;56.64;102667.28;5014864;28;45606;-86